YMAV/AVV METAR and TAF weather

Enter ICAO airport designator
Station Type Date Time Source
YMAV METAR 2021/09/25 02:30 UTC NOAA

YMAV 250230Z AUTO 21006KT 9999 -SHRA BKN045 OVC053 10/03 Q1022


Station Type Date Time Source
YMAV Decoded METAR 2021/09/25 02:30 UTC NOAA

Avalon, Avalon Airport, Australia (YMAV) 38-02S 144-29E
Sep 24, 2021 - 10:30 PM EDT / 2021.09.25 0230 UTC
Wind: from the SSW (210 degrees) at 7 MPH (6 KT):0
Visibility: greater than 7 mile(s):0
Sky conditions: overcast
Weather: light rain showers
Temperature: 50 F (10 C)
Dew Point: 37 F (3 C)
Relative Humidity: 61%
Pressure (altimeter): 30.18 in. Hg (1022 hPa)
ob: YMAV 250230Z AUTO 21006KT 9999 -SHRA BKN045 OVC053 10/03 Q1022
cycle: 2

Station Type Date Time Source
YMAV TAF 2021/09/24 18:33 UTC NOAA

TAF YMAV 241721Z 2418/2518 29008KT 9999 FEW045
FM250100 20012KT 9999 -SHRA SCT035 BKN050
FM251200 27004KT 9999 NSW SCT030

Example: see airport list